SPEO2: Bird Creek, Sperry, OK

Data processed at Thu May 23 2019 23:50


All information presented herein is the property of the government of the United States of America and may be revised or deleted at any time without prior notice.
Dissemination of this information without the expressed written consent of the Public Affairs Office, Tulsa District U.S. Army Corps of Engineers is strictly prohibited.
These data are gathered electronically and, as presented, have not undergone any form of quality control. These data are not guaranteed to be valid or correct.
Go to home page.
Go to station list.
Go to home page.

Upstream stations:

Downstream station:
Previous Day
Next Day
Current Day
    
SHEF ID:       SPEO2     Bird Creek near Sperry, OK
STATION TYPE:  
Regulating: Stage =    21.00, Flow =    11006

               PRECIP     STAGE  STAGE(2)  RIV-FLOW  WTR-TEMP   DIS-OXY        PH   CONDUCT  BAT-LOAD
                   in        ft        ft       cfs         F      mg/l        su   umho/cm      volt
              Ccp-Rev   Ccp-Rev   Ccp-Rev   Ccp-Rev   Ccp-Rev   Ccp-Rev   Ccp-Rev   Ccp-Rev   Ccp-Rev
(US/Central)
05/23 00:00      0.00     29.58     29.31     28633     64.49      6.54      7.35       107     12.41
05/23 01:00      0.00     29.43     29.08     27528     64.65      6.42      7.34       108     12.41
05/23 02:00      0.00     29.25     28.77     26338     64.83      6.31      7.32       109     12.33
05/23 03:00      0.00     29.06     28.87     25362     64.98      6.21      7.32       110     12.33
05/23 04:00      0.00     28.92     28.47     24662     65.10      6.11      7.31       110     12.33
05/23 05:00      0.00     28.80     28.48     21475     65.26      6.03      7.31       112     12.33
05/23 06:00      0.00     28.71     28.38     21235     65.46      5.99      7.32       115     12.33
05/23 07:00      0.00     28.62     28.34     20998     65.79      6.05      7.34       119     12.33
05/23 08:00      0.00     28.54     28.31     20788     66.11      6.11      7.36       122     12.33
05/23 09:00      0.00     28.41     28.04     20451     66.45      6.16      7.40       125     12.33
05/23 10:00      0.00     28.31     28.06     20194     66.94      6.20      7.38       120     12.49
05/23 11:00      0.00     28.19     28.02     19889     67.32      6.23      7.38       115     12.73
05/23 12:00      0.00     28.17     27.71     19838     67.71      6.25      7.36       108     12.73
05/23 13:00      0.00     28.09     27.77     19637     68.04      6.27      7.36       103     12.89
05/23 14:00      0.00     28.03     27.71     19487     68.31      6.24      7.35        98     12.65
05/23 15:00      0.00     28.03     27.72     19487     68.54      6.20      7.31        95     12.65
05/23 16:00      0.00     28.05     27.74     19537     68.81      6.15      7.31        93     12.65
05/23 17:00      0.00     28.09     27.61     19637     69.12      6.10      7.29        91     12.49
05/23 18:00      0.00     28.14     27.69     19763     69.44      6.06      7.27        90     12.57
05/23 19:00      0.00     28.23     27.76     19990     69.71      6.03      7.25        88     12.57
05/23 20:00      0.00     28.28     27.96     20117     69.91      6.00      7.25        87     12.49
05/23 21:00      0.00     28.37     28.08     20348     70.03      5.99      7.23        87     12.41
05/23 22:00      0.00     28.37     28.08     20348     70.03      6.02      7.23        88     12.41
05/23 23:00      0.00     28.42     28.06     20477     69.94      6.08      7.24        90     12.41